createdAt,value
2023-03-01T00:01:57.415Z,69.47
2023-03-01T00:04:26.860Z,69.39
2023-03-01T00:06:56.100Z,69.40
2023-03-01T00:09:24.929Z,69.14
2023-03-01T00:11:53.732Z,69.06
2023-03-01T00:14:22.575Z,68.76
2023-03-01T00:16:51.516Z,68.82
2023-03-01T00:19:23.540Z,68.68
2023-03-01T00:21:52.442Z,68.64
2023-03-01T00:24:21.327Z,69.09
2023-03-01T00:26:50.233Z,68.79
2023-03-01T00:29:19.019Z,68.92
2023-03-01T00:31:48.100Z,68.62
2023-03-01T00:34:17.068Z,68.55
2023-03-01T00:36:45.977Z,68.51
2023-03-01T00:39:18.592Z,68.61
2023-03-01T00:41:47.689Z,68.30
2023-03-01T00:44:16.534Z,68.32
2023-03-01T00:46:45.397Z,67.83
2023-03-01T00:49:14.912Z,68.12
2023-03-01T00:51:43.875Z,68.05
2023-03-01T00:54:12.973Z,67.73
2023-03-01T00:56:41.848Z,67.82
2023-03-01T00:59:10.723Z,67.85
2023-03-01T01:01:42.584Z,67.68
2023-03-01T01:04:14.563Z,67.56
2023-03-01T01:06:48.259Z,67.35
2023-03-01T01:09:19.379Z,67.25
2023-03-01T01:11:50.678Z,66.77
2023-03-01T01:14:20.877Z,66.74
2023-03-01T01:16:50.960Z,66.89
2023-03-01T01:19:19.929Z,66.67
2023-03-01T01:21:50.437Z,66.34
2023-03-01T01:24:21.265Z,66.19
2023-03-01T01:26:50.814Z,66.24
2023-03-01T01:29:19.746Z,66.04
2023-03-01T01:31:48.715Z,66.16
2023-03-01T01:34:24.335Z,66.22
2023-03-01T01:36:58.018Z,66.13
2023-03-01T01:39:26.852Z,65.65
2023-03-01T01:41:55.876Z,65.92
2023-03-01T01:44:29.153Z,65.99
2023-03-01T01:47:03.053Z,65.65
2023-03-01T01:49:37.757Z,65.79
2023-03-01T01:52:33.410Z,65.38
2023-03-01T01:55:06.551Z,65.57
2023-03-01T01:57:43.676Z,65.55
2023-03-01T02:00:21.337Z,65.12
2023-03-01T02:02:56.577Z,65.34
2023-03-01T02:05:25.452Z,65.21
2023-03-01T02:07:54.927Z,65.30
2023-03-01T02:10:26.280Z,65.36
2023-03-01T02:12:57.750Z,65.19
2023-03-01T02:15:46.947Z,65.12
2023-03-01T02:18:20.024Z,64.74
2023-03-01T02:20:51.591Z,64.27
2023-03-01T02:23:20.705Z,64.76
2023-03-01T02:26:28.244Z,64.42
2023-03-01T02:28:57.488Z,64.17
2023-03-01T02:31:44.780Z,64.14
2023-03-01T02:34:19.124Z,63.29
2023-03-01T02:37:01.785Z,63.61
2023-03-01T02:39:36.335Z,63.54
2023-03-01T02:42:07.790Z,63.00
2023-03-01T02:44:36.684Z,63.11
2023-03-01T02:47:07.656Z,63.65
2023-03-01T02:49:38.699Z,63.09
2023-03-01T02:52:16.491Z,62.73
2023-03-01T02:54:58.177Z,61.91
2023-03-01T02:57:29.074Z,61.77
2023-03-01T03:00:01.562Z,61.03
2023-03-01T03:02:39.639Z,61.00
2023-03-01T03:05:21.762Z,60.92
2023-03-01T03:07:54.556Z,61.42
2023-03-01T03:10:27.500Z,61.58
2023-03-01T03:12:59.021Z,62.26
2023-03-01T03:15:29.307Z,61.87
2023-03-01T03:18:00.132Z,61.95
2023-03-01T03:20:30.417Z,62.19
2023-03-01T03:23:00.436Z,62.06
2023-03-01T03:25:30.779Z,62.03
2023-03-01T03:28:00.963Z,61.92
2023-03-01T03:30:32.280Z,62.05
2023-03-01T03:33:01.557Z,62.00
2023-03-01T03:35:33.692Z,62.22
2023-03-01T03:38:16.966Z,62.27
2023-03-01T03:40:49.234Z,61.99
2023-03-01T03:43:20.686Z,62.56
2023-03-01T03:45:53.638Z,62.33
2023-03-01T03:48:22.589Z,62.84
2023-03-01T03:50:57.242Z,62.51
2023-03-01T03:53:28.478Z,62.56
2023-03-01T03:55:57.688Z,62.86
2023-03-01T03:58:28.025Z,63.13
2023-03-01T04:00:59.395Z,62.97
2023-03-01T04:03:29.961Z,63.41
2023-03-01T04:06:03.121Z,63.13
2023-03-01T04:08:31.935Z,63.19
2023-03-01T04:11:23.353Z,63.46
2023-03-01T04:13:54.513Z,63.26
2023-03-01T04:16:25.044Z,63.46
2023-03-01T04:18:58.286Z,63.02
2023-03-01T04:21:27.253Z,62.99
2023-03-01T04:23:56.070Z,62.49
2023-03-01T04:26:26.539Z,61.05
2023-03-01T04:28:56.975Z,60.09
2023-03-01T04:31:25.998Z,59.35
2023-03-01T04:33:57.251Z,59.22
2023-03-01T04:36:29.589Z,58.77
2023-03-01T04:38:58.763Z,58.07
2023-03-01T04:41:27.866Z,56.51
2023-03-01T04:43:56.747Z,56.51
2023-03-01T04:46:26.978Z,56.25
2023-03-01T04:49:46.762Z,53.87
2023-03-01T04:52:15.812Z,52.97
2023-03-01T04:54:44.789Z,51.19
2023-03-01T04:57:13.573Z,50.48
2023-03-01T04:59:42.371Z,48.97
2023-03-01T05:02:11.770Z,47.74
2023-03-01T05:04:40.871Z,46.54
2023-03-01T05:07:10.000Z,45.46
2023-03-01T05:09:38.834Z,45.52
2023-03-01T05:12:07.707Z,44.96
2023-03-01T05:14:36.529Z,42.68
2023-03-01T05:17:05.520Z,43.11
2023-03-01T05:19:34.451Z,41.58
2023-03-01T05:22:03.318Z,39.46
2023-03-01T05:24:34.463Z,41.91
2023-03-01T05:27:10.399Z,42.17
2023-03-01T05:30:14.954Z,42.18
2023-03-01T05:32:46.724Z,42.31
2023-03-01T05:35:18.385Z,41.33
2023-03-01T05:37:49.136Z,40.02
2023-03-01T05:40:21.318Z,39.54
2023-03-01T05:42:55.205Z,38.57
2023-03-01T05:45:26.406Z,37.78
2023-03-01T05:47:56.652Z,38.37
2023-03-01T05:50:30.819Z,39.25
2023-03-01T05:53:11.911Z,39.65
2023-03-01T05:55:41.430Z,40.34
2023-03-01T05:58:18.132Z,41.89
2023-03-01T06:00:49.951Z,42.96
2023-03-01T06:03:19.722Z,41.03
2023-03-01T06:05:48.735Z,42.18
2023-03-01T06:08:17.795Z,42.50
2023-03-01T06:10:49.207Z,42.15
2023-03-01T06:13:17.994Z,42.51
2023-03-01T06:15:46.787Z,42.19
2023-03-01T06:18:15.589Z,42.33
2023-03-01T06:20:44.439Z,42.54
2023-03-01T06:23:13.297Z,41.08
2023-03-01T06:25:42.035Z,40.76
2023-03-01T06:28:10.971Z,41.23
2023-03-01T06:30:40.045Z,39.39
2023-03-01T06:33:08.943Z,39.73
2023-03-01T06:35:37.774Z,39.81
2023-03-01T06:38:07.668Z,40.26
2023-03-01T06:40:36.943Z,41.21
2023-03-01T06:43:06.463Z,41.40
2023-03-01T06:45:35.780Z,41.65
2023-03-01T06:48:08.532Z,42.43
2023-03-01T06:50:37.904Z,43.94
2023-03-01T06:53:06.893Z,44.99
2023-03-01T06:55:35.712Z,44.64
2023-03-01T06:58:05.127Z,44.68
2023-03-01T07:00:34.846Z,44.83
2023-03-01T07:03:04.937Z,44.91
2023-03-01T07:05:35.267Z,44.96
2023-03-01T07:08:04.100Z,44.76
2023-03-01T07:10:33.450Z,44.24
2023-03-01T07:13:02.416Z,44.12
2023-03-01T07:15:31.314Z,43.89
2023-03-01T07:18:00.129Z,44.13
2023-03-01T07:20:29.159Z,44.43
2023-03-01T07:23:00.114Z,44.21
2023-03-01T07:25:28.928Z,44.86
2023-03-01T07:28:01.349Z,46.20
2023-03-01T07:30:30.190Z,47.17
2023-03-01T07:33:00.149Z,48.19
2023-03-01T07:35:29.270Z,47.88
2023-03-01T07:37:58.870Z,48.20
2023-03-01T07:40:27.835Z,48.04
2023-03-01T07:43:00.793Z,48.26
2023-03-01T07:45:30.567Z,48.08
2023-03-01T07:47:59.630Z,47.93
2023-03-01T07:50:37.411Z,47.92
2023-03-01T07:53:07.812Z,47.67
2023-03-01T07:55:36.624Z,48.61
2023-03-01T07:58:05.963Z,48.69
2023-03-01T08:00:35.827Z,48.84
2023-03-01T08:03:04.993Z,49.17
2023-03-01T08:05:34.258Z,49.20
2023-03-01T08:08:03.078Z,49.14
2023-03-01T08:10:31.936Z,49.68
2023-03-01T08:13:00.771Z,49.12
2023-03-01T08:15:29.484Z,49.54
2023-03-01T08:17:58.293Z,50.24
2023-03-01T08:20:27.175Z,50.12
2023-03-01T08:22:56.024Z,50.26
2023-03-01T08:25:24.834Z,50.43
2023-03-01T08:27:53.558Z,51.55
2023-03-01T08:30:22.524Z,51.76
2023-03-01T08:32:52.021Z,52.07
2023-03-01T08:35:22.453Z,52.25
2023-03-01T08:37:52.758Z,52.74
2023-03-01T08:40:21.621Z,53.19
2023-03-01T08:42:50.720Z,53.73
2023-03-01T08:45:20.129Z,54.37
2023-03-01T08:47:48.977Z,54.42
2023-03-01T08:50:18.326Z,54.80
2023-03-01T08:52:47.349Z,55.64
2023-03-01T08:55:18.856Z,55.42
2023-03-01T08:57:47.604Z,55.55
2023-03-01T09:00:17.494Z,55.46
2023-03-01T09:02:46.603Z,55.89
2023-03-01T09:05:15.723Z,55.82
2023-03-01T09:07:44.551Z,55.46
2023-03-01T09:10:14.736Z,55.33
2023-03-01T09:12:43.666Z,55.27
2023-03-01T09:15:12.597Z,55.75
2023-03-01T09:17:41.402Z,55.25
2023-03-01T09:20:11.010Z,55.01
2023-03-01T09:22:39.856Z,54.96
2023-03-01T09:25:09.238Z,55.31
2023-03-01T09:27:38.046Z,55.48
2023-03-01T09:30:07.485Z,55.11
2023-03-01T09:32:36.388Z,55.45
2023-03-01T09:35:06.294Z,55.70
2023-03-01T09:37:36.889Z,55.32
2023-03-01T09:40:08.510Z,55.18
2023-03-01T09:42:47.184Z,55.24
2023-03-01T09:45:44.476Z,55.33
2023-03-01T09:48:23.771Z,55.75
2023-03-01T09:50:54.030Z,55.39
2023-03-01T09:53:34.878Z,55.76
2023-03-01T09:56:26.681Z,55.83
2023-03-01T09:59:03.775Z,55.98
2023-03-01T10:01:57.078Z,56.18
2023-03-01T10:04:32.046Z,56.47
2023-03-01T10:07:03.565Z,56.56
2023-03-01T10:09:36.859Z,56.75
2023-03-01T10:12:15.475Z,56.92
2023-03-01T10:15:00.687Z,56.83
2023-03-01T10:17:43.934Z,57.16
2023-03-01T10:20:20.564Z,57.24
2023-03-01T10:22:54.013Z,57.18
2023-03-01T10:26:10.217Z,56.64
2023-03-01T10:29:03.544Z,57.31
2023-03-01T10:31:48.236Z,56.97
2023-03-01T10:34:21.328Z,57.60
2023-03-01T10:36:53.263Z,57.44
2023-03-01T10:39:24.934Z,58.01
2023-03-01T10:42:00.747Z,58.00
2023-03-01T10:44:44.983Z,58.15
2023-03-01T10:47:23.975Z,57.94
2023-03-01T10:50:01.876Z,58.04
2023-03-01T10:52:38.039Z,58.23
2023-03-01T10:55:36.700Z,58.15
2023-03-01T10:58:23.253Z,58.43
2023-03-01T11:01:06.837Z,58.65
2023-03-01T11:03:40.077Z,58.38
2023-03-01T11:06:14.993Z,58.87
2023-03-01T11:08:46.888Z,58.26
2023-03-01T11:11:35.354Z,59.10
2023-03-01T11:14:25.139Z,58.38
2023-03-01T11:17:27.325Z,58.53
2023-03-01T11:20:12.413Z,59.02
2023-03-01T11:22:55.154Z,59.24
2023-03-01T11:25:32.523Z,59.51
2023-03-01T11:28:06.915Z,59.26
2023-03-01T11:31:09.254Z,59.50
2023-03-01T11:34:04.785Z,59.50
2023-03-01T11:36:41.457Z,59.43
2023-03-01T11:39:24.411Z,59.61
2023-03-01T11:42:19.176Z,59.91
2023-03-01T11:44:52.390Z,59.62
2023-03-01T11:47:48.789Z,59.67
2023-03-01T11:50:21.491Z,59.75
2023-03-01T11:52:58.802Z,59.59
2023-03-01T11:55:27.514Z,59.73
2023-03-01T11:58:24.049Z,59.88
2023-03-01T12:01:29.997Z,59.29
2023-03-01T12:04:30.810Z,59.34
2023-03-01T12:07:05.964Z,59.33
2023-03-01T12:09:49.958Z,59.76
2023-03-01T12:12:43.143Z,59.99
2023-03-01T12:15:31.583Z,59.82
2023-03-01T12:18:30.837Z,60.22
2023-03-01T12:21:50.607Z,60.19
2023-03-01T12:25:32.926Z,59.75
2023-03-01T12:28:29.948Z,59.69
2023-03-01T12:31:10.363Z,60.34
2023-03-01T12:33:52.109Z,60.10
2023-03-01T12:36:51.513Z,59.87
2023-03-01T12:39:34.793Z,60.19
2023-03-01T12:42:51.824Z,60.76
2023-03-01T12:45:33.910Z,60.01
2023-03-01T12:49:01.429Z,60.53
2023-03-01T12:51:33.918Z,60.90
2023-03-01T12:54:34.939Z,61.17
2023-03-01T12:57:38.664Z,61.48
2023-03-01T13:00:30.807Z,61.13
2023-03-01T13:03:12.262Z,61.63
2023-03-01T13:06:03.253Z,60.94
2023-03-01T13:09:12.509Z,61.38
2023-03-01T13:11:44.907Z,61.61
2023-03-01T13:14:33.970Z,61.74
2023-03-01T13:17:03.021Z,61.79
2023-03-01T13:19:33.917Z,61.37
2023-03-01T13:22:31.284Z,61.45
2023-03-01T13:25:20.014Z,61.42
2023-03-01T13:27:49.328Z,61.52
2023-03-01T13:30:38.703Z,62.03
2023-03-01T13:33:29.530Z,62.29
2023-03-01T13:36:00.987Z,62.37
2023-03-01T13:38:48.113Z,62.06
2023-03-01T13:41:38.402Z,62.30
2023-03-01T13:44:26.368Z,61.82
2023-03-01T13:47:08.996Z,62.26
2023-03-01T13:50:01.498Z,62.31
2023-03-01T13:52:46.319Z,62.05
2023-03-01T13:55:43.774Z,62.73
2023-03-01T13:58:31.238Z,62.22
2023-03-01T14:01:07.415Z,61.88
2023-03-01T14:03:43.341Z,61.84
2023-03-01T14:06:23.363Z,61.92
2023-03-01T14:09:25.408Z,62.04
2023-03-01T14:12:18.931Z,62.52
2023-03-01T14:14:54.947Z,62.14
2023-03-01T14:17:37.686Z,62.55
2023-03-01T14:20:22.828Z,61.78
2023-03-01T14:22:56.679Z,62.49
2023-03-01T14:25:35.218Z,61.99
2023-03-01T14:28:20.682Z,62.50
2023-03-01T14:30:51.852Z,62.82
2023-03-01T14:33:21.288Z,62.56
2023-03-01T14:36:05.300Z,63.24
2023-03-01T14:38:43.133Z,63.02
2023-03-01T14:41:27.310Z,62.83
2023-03-01T14:44:02.538Z,63.03
2023-03-01T14:46:35.905Z,63.54
2023-03-01T14:49:28.728Z,63.55
2023-03-01T14:52:09.752Z,63.09
2023-03-01T14:54:49.794Z,63.88
2023-03-01T14:57:20.633Z,63.46
2023-03-01T14:59:52.650Z,63.55
2023-03-01T15:02:25.087Z,63.79
2023-03-01T15:04:58.269Z,63.45
2023-03-01T15:07:32.892Z,63.84
2023-03-01T15:10:02.956Z,63.53
2023-03-01T15:12:40.860Z,63.91
2023-03-01T15:15:40.314Z,64.32
2023-03-01T15:18:19.769Z,63.98
2023-03-01T15:20:50.597Z,64.08
2023-03-01T15:23:31.587Z,63.71
2023-03-01T15:26:00.811Z,64.04
2023-03-01T15:28:36.352Z,64.31
2023-03-01T15:31:26.058Z,63.86
2023-03-01T15:34:29.211Z,63.71
2023-03-01T15:37:01.649Z,64.34
2023-03-01T15:39:47.681Z,64.14
2023-03-01T15:42:31.904Z,64.43
2023-03-01T15:45:31.750Z,64.44
2023-03-01T15:48:07.142Z,63.96
2023-03-01T15:50:41.592Z,64.02
2023-03-01T15:53:15.833Z,63.90
2023-03-01T15:55:46.306Z,64.10
2023-03-01T15:58:19.091Z,64.61
2023-03-01T16:01:00.399Z,64.70
2023-03-01T16:03:31.090Z,64.21
2023-03-01T16:05:59.959Z,64.42
2023-03-01T16:08:28.790Z,64.75
2023-03-01T16:10:57.904Z,64.91
2023-03-01T16:13:28.446Z,65.01
2023-03-01T16:15:58.178Z,65.31
2023-03-01T16:18:27.492Z,65.31
2023-03-01T16:20:56.492Z,64.97
2023-03-01T16:23:26.570Z,65.00
2023-03-01T16:25:55.511Z,65.52
2023-03-01T16:28:24.410Z,64.77
2023-03-01T16:30:53.575Z,64.97
2023-03-01T16:33:28.682Z,64.95
2023-03-01T16:36:12.525Z,65.36
2023-03-01T16:38:41.522Z,65.70
2023-03-01T16:41:16.031Z,65.34
2023-03-01T16:43:45.617Z,65.54
2023-03-01T16:46:16.975Z,65.78
2023-03-01T16:48:46.938Z,66.21
2023-03-01T16:51:16.344Z,65.93
2023-03-01T16:53:47.101Z,65.93
2023-03-01T16:56:16.961Z,65.73
2023-03-01T16:58:46.177Z,65.80
2023-03-01T17:01:22.537Z,66.70
2023-03-01T17:03:52.822Z,66.30
2023-03-01T17:06:23.819Z,66.11
2023-03-01T17:08:52.643Z,66.28
2023-03-01T17:11:22.181Z,66.30
2023-03-01T17:13:50.989Z,66.69
2023-03-01T17:16:21.522Z,66.55
2023-03-01T17:18:50.741Z,66.47
2023-03-01T17:21:19.999Z,66.18
2023-03-01T17:23:50.984Z,66.51
2023-03-01T17:26:20.023Z,66.68
2023-03-01T17:28:52.439Z,66.60
2023-03-01T17:31:22.750Z,66.82
2023-03-01T17:33:52.971Z,66.88
2023-03-01T17:36:21.783Z,66.62
2023-03-01T17:38:51.223Z,66.94
2023-03-01T17:41:21.151Z,66.67
2023-03-01T17:43:49.928Z,67.02
2023-03-01T17:46:19.097Z,67.28
2023-03-01T17:48:48.013Z,67.24
2023-03-01T17:51:17.068Z,67.47
2023-03-01T17:53:45.964Z,67.59
2023-03-01T17:56:14.834Z,67.44
2023-03-01T17:58:43.863Z,67.25
2023-03-01T18:01:18.700Z,67.96
2023-03-01T18:03:49.426Z,67.80
2023-03-01T18:06:27.902Z,67.57
2023-03-01T18:08:57.779Z,67.30
2023-03-01T18:11:27.114Z,67.93
2023-03-01T18:13:57.049Z,67.81
2023-03-01T18:16:26.038Z,67.85
2023-03-01T18:18:57.184Z,67.38
2023-03-01T18:21:26.189Z,68.07
2023-03-01T18:23:55.656Z,68.10
2023-03-01T18:26:25.639Z,67.75
2023-03-01T18:28:55.009Z,67.47
2023-03-01T18:31:23.994Z,68.38
2023-03-01T18:33:56.794Z,67.94
2023-03-01T18:36:28.711Z,68.15
2023-03-01T18:38:57.821Z,67.80
2023-03-01T18:41:28.762Z,67.64
2023-03-01T18:43:58.215Z,68.25
2023-03-01T18:46:27.402Z,67.98
2023-03-01T18:48:56.664Z,67.73
2023-03-01T18:51:30.914Z,67.89
2023-03-01T18:54:00.371Z,68.00
2023-03-01T18:56:34.125Z,67.97
2023-03-01T18:59:05.154Z,68.41
2023-03-01T19:01:37.530Z,67.77
2023-03-01T19:04:07.437Z,68.32
2023-03-01T19:06:38.394Z,68.04
2023-03-01T19:09:08.795Z,68.34
2023-03-01T19:11:39.523Z,68.43
2023-03-01T19:14:09.241Z,68.58
2023-03-01T19:16:38.494Z,68.41
2023-03-01T19:19:10.635Z,68.63
2023-03-01T19:21:39.735Z,68.33
2023-03-01T19:24:08.737Z,68.09
2023-03-01T19:26:37.537Z,68.42
2023-03-01T19:29:06.832Z,69.01
2023-03-01T19:31:35.728Z,68.86
2023-03-01T19:34:11.628Z,68.58
2023-03-01T19:36:43.318Z,68.25
2023-03-01T19:39:14.196Z,68.65
2023-03-01T19:41:44.234Z,68.82
2023-03-01T19:44:13.703Z,68.79
2023-03-01T19:46:42.743Z,68.53
2023-03-01T19:49:11.696Z,68.81
2023-03-01T19:51:40.485Z,68.89
2023-03-01T19:54:10.681Z,68.82
2023-03-01T19:56:40.116Z,69.10
2023-03-01T19:59:09.011Z,68.74
2023-03-01T20:01:39.191Z,69.20
2023-03-01T20:04:09.685Z,69.36
2023-03-01T20:06:39.694Z,69.06
2023-03-01T20:09:21.108Z,69.19
2023-03-01T20:11:52.108Z,68.95
2023-03-01T20:14:23.742Z,68.85
2023-03-01T20:16:53.716Z,69.34
2023-03-01T20:19:22.634Z,69.47
2023-03-01T20:21:51.504Z,69.28
2023-03-01T20:24:20.513Z,69.63
2023-03-01T20:26:49.366Z,69.52
2023-03-01T20:29:18.337Z,69.57
2023-03-01T20:31:47.401Z,69.87
2023-03-01T20:34:16.769Z,70.12
2023-03-01T20:36:45.708Z,70.68
2023-03-01T20:39:14.739Z,70.33
2023-03-01T20:41:43.507Z,70.50
2023-03-01T20:44:12.487Z,71.16
2023-03-01T20:46:41.341Z,71.53
2023-03-01T20:49:11.275Z,71.27
2023-03-01T20:51:40.120Z,71.27
2023-03-01T20:54:11.124Z,71.95
2023-03-01T20:56:40.069Z,72.44
2023-03-01T20:59:10.380Z,73.13
2023-03-01T21:01:40.720Z,73.31
2023-03-01T21:04:10.515Z,73.44
2023-03-01T21:06:39.798Z,74.97
2023-03-01T21:09:08.760Z,74.69
2023-03-01T21:11:38.027Z,75.41
2023-03-01T21:14:06.937Z,76.01
2023-03-01T21:16:36.383Z,76.44
2023-03-01T21:19:05.522Z,76.35
2023-03-01T21:21:34.440Z,76.74
2023-03-01T21:24:03.248Z,77.61
2023-03-01T21:26:32.415Z,77.51
2023-03-01T21:29:02.097Z,77.45
2023-03-01T21:31:39.287Z,78.59
2023-03-01T21:34:13.986Z,78.23
2023-03-01T21:36:43.001Z,79.32
2023-03-01T21:39:13.324Z,78.72
2023-03-01T21:41:42.642Z,79.04
2023-03-01T21:44:11.466Z,79.68
2023-03-01T21:46:40.574Z,79.78
2023-03-01T21:49:11.014Z,79.96
2023-03-01T21:51:40.130Z,80.00
2023-03-01T21:54:09.247Z,80.62
2023-03-01T21:56:39.477Z,80.58
2023-03-01T21:59:13.768Z,80.49
2023-03-01T22:01:43.543Z,80.80
2023-03-01T22:04:13.769Z,81.50
2023-03-01T22:06:45.189Z,81.13
2023-03-01T22:09:19.797Z,81.44
2023-03-01T22:11:54.970Z,81.89
2023-03-01T22:14:23.936Z,82.30
2023-03-01T22:16:54.025Z,81.89
2023-03-01T22:19:24.065Z,82.66
2023-03-01T22:21:53.855Z,82.21
2023-03-01T22:24:25.491Z,82.61
2023-03-01T22:26:55.727Z,82.62
2023-03-01T22:29:28.038Z,83.01
2023-03-01T22:31:58.203Z,83.09
2023-03-01T22:34:27.515Z,83.54
2023-03-01T22:36:57.326Z,83.12
2023-03-01T22:39:26.232Z,83.81
2023-03-01T22:41:57.467Z,83.78
2023-03-01T22:44:26.397Z,84.14
2023-03-01T22:46:55.392Z,84.03
2023-03-01T22:49:24.559Z,84.89
2023-03-01T22:51:53.917Z,84.60
2023-03-01T22:54:24.703Z,84.98
2023-03-01T22:56:53.896Z,85.69
2023-03-01T22:59:23.700Z,85.20
2023-03-01T23:01:54.730Z,85.21
2023-03-01T23:04:24.626Z,85.41
2023-03-01T23:06:56.486Z,85.75
2023-03-01T23:09:27.297Z,86.28
2023-03-01T23:11:56.774Z,86.54
2023-03-01T23:14:31.701Z,86.61
2023-03-01T23:17:02.213Z,86.25
2023-03-01T23:19:32.922Z,86.67
2023-03-01T23:22:01.859Z,86.96
2023-03-01T23:24:33.714Z,86.63
2023-03-01T23:27:03.625Z,86.95
2023-03-01T23:29:33.287Z,87.04
2023-03-01T23:32:02.855Z,87.25
2023-03-01T23:34:31.745Z,87.57
2023-03-01T23:37:00.666Z,87.70
2023-03-01T23:39:30.706Z,87.05
2023-03-01T23:41:59.638Z,87.39
2023-03-01T23:44:28.593Z,88.03
2023-03-01T23:46:57.520Z,87.31
2023-03-01T23:49:26.588Z,87.39
2023-03-01T23:51:55.631Z,88.02
2023-03-01T23:54:26.498Z,88.02
2023-03-01T23:56:55.412Z,87.89
2023-03-01T23:59:24.973Z,88.00
